TimePST,TemperatureF,Dew PointF,Humidity,Sea Level PressureIn,VisibilityMPH,Wind Direction,Wind SpeedMPH,Gust SpeedMPH,PrecipitationIn,Events,Conditions,WindDirDegrees,DateUTC
12:58 AM,37.9,15.3,40,30.07,10.0,ENE,3.5,-,N/A,,Clear,60,2013-01-08 08:58:00
1:58 AM,40.3,15.1,36,30.09,10.0,NW,3.5,-,N/A,,Clear,320,2013-01-08 09:58:00
2:58 AM,36.9,17.1,45,30.09,10.0,NE,5.8,-,N/A,,Clear,40,2013-01-08 10:58:00
3:58 AM,38.7,16.5,41,30.09,10.0,NNW,1.2,-,N/A,,Clear,340,2013-01-08 11:58:00
4:58 AM,38.5,17.2,42,30.11,10.0,ENE,3.5,-,N/A,,Clear,70,2013-01-08 12:58:00
5:58 AM,36.1,20.1,52,30.13,10.0,North,3.5,-,N/A,,Clear,10,2013-01-08 13:58:00
6:58 AM,34.0,18.5,53,30.16,10.0,SE,1.2,-,N/A,,Clear,130,2013-01-08 14:58:00
7:58 AM,36.5,21.0,54,30.20,10.0,Calm,Calm,-,N/A,,Clear,0,2013-01-08 15:58:00
8:58 AM,43.0,21.4,42,30.20,10.0,Calm,Calm,-,N/A,,Clear,0,2013-01-08 16:58:00
9:58 AM,49.8,24.1,37,30.21,10.0,SSW,4.6,-,N/A,,Clear,200,2013-01-08 17:58:00
10:58 AM,56.7,26.4,31,30.18,10.0,West,4.6,-,N/A,,Clear,280,2013-01-08 18:58:00
11:58 AM,59.2,28.0,31,30.15,10.0,SSW,4.6,-,N/A,,Clear,200,2013-01-08 19:58:00
12:58 PM,62.2,28.2,28,30.12,10.0,NNW,4.6,-,N/A,,Clear,330,2013-01-08 20:58:00
1:51 PM,64.4,28.4,26,30.11,10.0,North,15.0,-,N/A,,Clear,360,2013-01-08 21:51:00
1:58 PM,65.3,28.0,25,30.11,10.0,North,10.4,-,N/A,,Clear,350,2013-01-08 21:58:00
2:55 PM,64.4,26.6,24,30.13,10.0,North,12.7,-,N/A,,Clear,360,2013-01-08 22:55:00
2:58 PM,65.1,27.1,24,30.12,10.0,NNW,9.2,-,N/A,,Clear,340,2013-01-08 22:58:00
3:58 PM,64.4,29.1,27,30.13,10.0,NNE,8.1,-,N/A,,Clear,30,2013-01-08 23:58:00
4:58 PM,59.5,28.0,30,30.15,10.0,NE,8.1,-,N/A,,Clear,40,2013-01-09 00:58:00
5:58 PM,55.0,28.8,37,30.17,10.0,NE,10.4,-,N/A,,Clear,50,2013-01-09 01:58:00
6:58 PM,55.0,29.1,37,30.19,10.0,ENE,2.3,-,N/A,,Clear,60,2013-01-09 02:58:00
7:58 PM,54.3,29.1,38,30.22,10.0,Variable,2.3,-,N/A,,Clear,0,2013-01-09 03:58:00
8:58 PM,52.0,29.5,42,30.23,10.0,NE,12.7,-,N/A,,Clear,50,2013-01-09 04:58:00
9:58 PM,52.3,30.2,43,30.22,10.0,SSE,5.8,-,N/A,,Clear,150,2013-01-09 05:58:00
10:58 PM,50.4,29.5,45,30.23,10.0,Variable,1.2,-,N/A,,Clear,0,2013-01-09 06:58:00
11:58 PM,50.4,30.0,46,30.24,10.0,East,6.9,-,N/A,,Clear,80,2013-01-09 07:58:00